createdAt,value
2023-05-24T00:00:53.356Z,13.75
2023-05-24T00:05:02.664Z,13.61
2023-05-24T00:09:32.876Z,13.42
2023-05-24T00:13:35.888Z,13.28
2023-05-24T00:17:41.372Z,13.15
2023-05-24T00:21:45.875Z,12.97
2023-05-24T00:25:48.661Z,12.82
2023-05-24T00:29:51.549Z,12.76
2023-05-24T00:33:54.323Z,12.69
2023-05-24T00:37:57.283Z,12.68
2023-05-24T00:42:00.092Z,12.47
2023-05-24T00:46:18.175Z,12.24
2023-05-24T00:50:21.960Z,12.16
2023-05-24T00:54:26.374Z,12.14
2023-05-24T00:58:32.711Z,12.12
2023-05-24T01:02:35.621Z,12.08
2023-05-24T01:07:14.033Z,11.98
2023-05-24T01:11:46.116Z,11.79
2023-05-24T01:16:11.280Z,11.63
2023-05-24T01:20:17.643Z,11.56
2023-05-24T01:24:53.722Z,11.50
2023-05-24T01:28:56.575Z,11.58
2023-05-24T01:33:25.273Z,11.57
2023-05-24T01:37:28.105Z,11.52
2023-05-24T01:41:41.465Z,11.59
2023-05-24T01:46:18.289Z,11.61
2023-05-24T01:50:27.531Z,11.64
2023-05-24T01:54:34.231Z,11.62
2023-05-24T01:58:39.468Z,11.66
2023-05-24T02:02:42.568Z,11.71
2023-05-24T02:06:51.555Z,11.74
2023-05-24T02:10:54.386Z,11.71
2023-05-24T02:14:57.394Z,11.75
2023-05-24T02:19:00.198Z,11.79
2023-05-24T02:23:04.347Z,11.83
2023-05-24T02:27:08.390Z,11.82
2023-05-24T02:31:11.224Z,11.76
2023-05-24T02:35:14.043Z,11.70
2023-05-24T02:39:17.045Z,11.67
2023-05-24T02:43:19.961Z,11.70
2023-05-24T02:47:23.067Z,11.68
2023-05-24T02:51:26.101Z,11.68
2023-05-24T02:55:29.272Z,11.75
2023-05-24T02:59:33.575Z,11.81
2023-05-24T03:03:36.517Z,11.84
2023-05-24T03:07:39.304Z,11.83
2023-05-24T03:11:42.638Z,11.85
2023-05-24T03:15:45.590Z,11.92
2023-05-24T03:19:48.486Z,12.00
2023-05-24T03:23:51.341Z,11.94
2023-05-24T03:28:05.136Z,11.85
2023-05-24T03:32:08.049Z,11.81
2023-05-24T03:36:10.893Z,11.76
2023-05-24T03:40:13.634Z,11.77
2023-05-24T03:44:16.916Z,11.77
2023-05-24T03:48:20.992Z,11.81
2023-05-24T03:52:24.151Z,11.74
2023-05-24T03:56:27.229Z,11.63
2023-05-24T04:00:30.184Z,11.50
2023-05-24T04:04:33.200Z,11.46
2023-05-24T04:08:35.982Z,11.38
2023-05-24T04:12:41.255Z,11.43
2023-05-24T04:16:45.180Z,11.42
2023-05-24T04:20:48.124Z,11.35
2023-05-24T04:24:51.049Z,11.45
2023-05-24T04:28:54.217Z,11.43
2023-05-24T04:32:57.665Z,11.46
2023-05-24T04:37:00.881Z,11.51
2023-05-24T04:41:03.880Z,11.50
2023-05-24T04:45:07.279Z,11.52
2023-05-24T04:49:10.042Z,11.51
2023-05-24T04:53:13.333Z,11.46
2023-05-24T04:57:46.081Z,11.45
2023-05-24T05:01:48.963Z,11.36
2023-05-24T05:05:51.820Z,11.44
2023-05-24T05:09:54.548Z,11.46
2023-05-24T05:13:57.369Z,11.42
2023-05-24T05:18:00.481Z,11.43
2023-05-24T05:22:03.445Z,11.44
2023-05-24T05:26:07.603Z,11.45
2023-05-24T05:30:10.961Z,11.44
2023-05-24T05:34:13.811Z,11.47
2023-05-24T05:38:16.805Z,11.53
2023-05-24T05:42:19.645Z,11.57
2023-05-24T05:46:22.509Z,11.65
2023-05-24T05:50:25.400Z,11.61
2023-05-24T05:54:28.623Z,11.45
2023-05-24T05:58:31.436Z,11.40
2023-05-24T06:02:34.444Z,11.43
2023-05-24T06:06:37.580Z,11.47
2023-05-24T06:10:40.611Z,11.48
2023-05-24T06:14:44.266Z,11.49
2023-05-24T06:19:01.221Z,11.45
2023-05-24T06:23:07.916Z,11.43
2023-05-24T06:27:10.745Z,11.41
2023-05-24T06:31:13.550Z,11.48
2023-05-24T06:35:16.847Z,11.57
2023-05-24T06:39:19.969Z,11.59
2023-05-24T06:43:29.054Z,11.70
2023-05-24T06:47:32.106Z,11.65
2023-05-24T06:51:38.088Z,11.81
2023-05-24T06:55:40.961Z,12.01
2023-05-24T06:59:43.735Z,12.08
2023-05-24T07:03:47.087Z,11.88
2023-05-24T07:07:49.887Z,11.83
2023-05-24T07:11:53.225Z,11.90
2023-05-24T07:15:55.973Z,11.75
2023-05-24T07:20:01.307Z,11.84
2023-05-24T07:24:04.367Z,11.94
2023-05-24T07:28:07.540Z,11.87
2023-05-24T07:32:10.365Z,12.01
2023-05-24T07:36:15.887Z,12.05
2023-05-24T07:40:19.075Z,12.18
2023-05-24T07:44:22.356Z,12.43
2023-05-24T07:48:25.171Z,12.76
2023-05-24T07:52:28.168Z,12.89
2023-05-24T07:56:32.229Z,12.88
2023-05-24T08:00:35.992Z,12.97
2023-05-24T08:04:38.771Z,13.25
2023-05-24T08:08:42.857Z,13.40
2023-05-24T08:12:45.777Z,13.49
2023-05-24T08:16:48.710Z,13.47
2023-05-24T08:20:53.066Z,13.38
2023-05-24T08:24:55.918Z,13.34
2023-05-24T08:28:58.695Z,13.18
2023-05-24T08:33:01.552Z,13.01
2023-05-24T08:37:05.148Z,13.08
2023-05-24T08:41:08.591Z,13.09
2023-05-24T08:45:13.152Z,13.24
2023-05-24T08:49:16.460Z,13.43
2023-05-24T08:53:21.870Z,13.64
2023-05-24T08:57:27.378Z,13.93
2023-05-24T09:01:32.290Z,14.24
2023-05-24T09:05:37.995Z,14.50
2023-05-24T09:09:50.020Z,14.83
2023-05-24T09:13:55.736Z,14.88
2023-05-24T09:17:58.598Z,15.11
2023-05-24T09:22:02.169Z,15.46
2023-05-24T09:26:09.810Z,15.58
2023-05-24T09:30:13.026Z,15.60
2023-05-24T09:34:19.518Z,15.64
2023-05-24T09:38:22.431Z,15.52
2023-05-24T09:42:28.151Z,15.52
2023-05-24T09:46:38.512Z,15.67
2023-05-24T09:51:11.839Z,15.68
2023-05-24T09:55:20.245Z,15.92
2023-05-24T09:59:24.631Z,15.93
2023-05-24T10:03:27.594Z,15.87
2023-05-24T10:07:31.892Z,15.83
2023-05-24T10:11:38.504Z,15.89
2023-05-24T10:15:41.364Z,16.18
2023-05-24T10:19:44.967Z,16.23
2023-05-24T10:23:51.635Z,16.23
2023-05-24T10:27:58.332Z,16.43
2023-05-24T10:32:02.299Z,16.57
2023-05-24T10:36:09.629Z,16.70
2023-05-24T10:44:47.726Z,16.96
2023-05-24T10:49:01.252Z,17.01
2023-05-24T10:53:18.973Z,17.05
2023-05-24T10:57:24.558Z,16.94
2023-05-24T11:01:33.683Z,16.67
2023-05-24T11:05:57.990Z,16.59
2023-05-24T11:10:07.232Z,16.65
2023-05-24T11:14:10.520Z,16.84
2023-05-24T11:18:14.270Z,17.01
2023-05-24T11:22:17.890Z,17.26
2023-05-24T11:26:21.329Z,17.47
2023-05-24T11:30:28.344Z,17.48
2023-05-24T11:34:32.273Z,17.74
2023-05-24T11:38:37.084Z,18.00
2023-05-24T11:42:39.964Z,18.12
2023-05-24T11:46:46.684Z,18.25
2023-05-24T11:51:31.004Z,18.27
2023-05-24T11:55:33.861Z,18.38
2023-05-24T11:59:38.100Z,18.36
2023-05-24T12:03:41.162Z,18.21
2023-05-24T12:07:48.851Z,17.97
2023-05-24T12:11:52.770Z,18.04
2023-05-24T12:15:56.867Z,18.23
2023-05-24T12:20:02.852Z,18.51
2023-05-24T12:24:10.658Z,18.60
2023-05-24T12:28:14.223Z,18.79
2023-05-24T12:32:17.449Z,18.67
2023-05-24T12:36:20.500Z,18.37
2023-05-24T12:40:23.716Z,18.19
2023-05-24T12:44:28.217Z,18.06
2023-05-24T12:48:35.656Z,17.94
2023-05-24T12:52:38.534Z,18.00
2023-05-24T12:56:41.645Z,18.12
2023-05-24T13:00:47.828Z,18.25
2023-05-24T13:04:51.457Z,18.21
2023-05-24T13:08:55.445Z,18.31
2023-05-24T13:12:58.389Z,18.53
2023-05-24T13:17:07.654Z,18.63
2023-05-24T13:21:12.345Z,18.89
2023-05-24T13:25:15.702Z,19.06
2023-05-24T13:29:34.041Z,18.93
2023-05-24T13:33:39.751Z,19.04
2023-05-24T13:37:42.765Z,18.98
2023-05-24T13:41:46.608Z,18.92
2023-05-24T13:46:18.875Z,19.05
2023-05-24T13:50:23.788Z,19.33
2023-05-24T13:54:26.712Z,19.44
2023-05-24T13:58:29.750Z,19.41
2023-05-24T14:02:32.798Z,19.28
2023-05-24T14:06:37.829Z,19.00
2023-05-24T14:10:48.797Z,18.97
2023-05-24T14:18:57.585Z,18.70
2023-05-24T14:23:19.939Z,18.66
2023-05-24T14:27:22.743Z,18.72
2023-05-24T14:31:25.649Z,18.95
2023-05-24T14:35:57.869Z,19.18
2023-05-24T14:40:00.814Z,19.37
2023-05-24T14:44:03.853Z,19.46
2023-05-24T14:48:11.544Z,19.57
2023-05-24T14:52:15.014Z,19.80
2023-05-24T14:56:17.851Z,19.87
2023-05-24T15:00:29.123Z,19.89
2023-05-24T15:04:32.163Z,20.08
2023-05-24T15:08:35.292Z,20.15
2023-05-24T15:12:38.195Z,20.14
2023-05-24T15:16:41.285Z,20.11
2023-05-24T15:20:49.477Z,20.16
2023-05-24T15:24:52.678Z,20.26
2023-05-24T15:29:25.315Z,20.06
2023-05-24T15:33:28.129Z,19.95
2023-05-24T15:37:31.509Z,19.96
2023-05-24T15:41:37.547Z,19.90
2023-05-24T15:45:48.266Z,19.72
2023-05-24T15:49:51.308Z,19.30
2023-05-24T15:53:58.560Z,18.98
2023-05-24T15:58:01.397Z,18.72
2023-05-24T16:02:08.216Z,18.49
2023-05-24T16:06:11.406Z,18.42
2023-05-24T16:10:14.283Z,18.31
2023-05-24T16:14:17.078Z,18.26
2023-05-24T16:18:49.723Z,18.09
2023-05-24T16:22:52.988Z,17.95
2023-05-24T16:26:57.146Z,17.78
2023-05-24T16:31:02.833Z,17.64
2023-05-24T16:35:07.361Z,17.49
2023-05-24T16:39:21.421Z,17.41
2023-05-24T16:43:24.400Z,17.36
2023-05-24T16:47:29.590Z,17.36
2023-05-24T16:51:33.315Z,17.29
2023-05-24T16:55:36.360Z,17.30
2023-05-24T16:59:39.228Z,17.35
2023-05-24T17:03:44.388Z,17.44
2023-05-24T17:07:47.297Z,17.47
2023-05-24T17:11:50.990Z,17.46
2023-05-24T17:16:11.762Z,17.42
2023-05-24T17:20:14.979Z,17.31
2023-05-24T17:24:17.858Z,17.28
2023-05-24T17:28:20.787Z,17.29
2023-05-24T17:32:34.031Z,17.20
2023-05-24T17:36:37.540Z,17.11
2023-05-24T17:40:40.683Z,16.98
2023-05-24T17:44:45.137Z,16.84
2023-05-24T17:48:48.031Z,16.78
2023-05-24T17:52:51.121Z,16.64
2023-05-24T17:56:54.135Z,16.52
2023-05-24T18:01:29.107Z,16.42
2023-05-24T18:05:31.967Z,16.34
2023-05-24T18:09:34.885Z,16.23
2023-05-24T18:13:39.181Z,16.15
2023-05-24T18:17:59.729Z,15.87
2023-05-24T18:22:52.745Z,15.66
2023-05-24T18:27:26.483Z,15.60
2023-05-24T18:31:29.273Z,15.54
2023-05-24T18:35:32.306Z,15.50
2023-05-24T18:39:35.681Z,15.39
2023-05-24T18:43:39.311Z,15.34
2023-05-24T18:47:42.266Z,15.36
2023-05-24T18:51:50.368Z,15.35
2023-05-24T18:55:53.194Z,15.24
2023-05-24T19:01:11.900Z,15.12
2023-05-24T19:05:14.942Z,14.96
2023-05-24T19:09:17.762Z,14.86
2023-05-24T19:13:20.589Z,14.69
2023-05-24T19:17:24.964Z,14.48
2023-05-24T19:21:28.150Z,14.32
2023-05-24T19:25:31.377Z,14.13
2023-05-24T19:29:37.114Z,13.92
2023-05-24T19:33:51.966Z,13.70
2023-05-24T19:38:22.471Z,13.50
2023-05-24T19:42:25.530Z,13.30
2023-05-24T19:46:32.017Z,13.02
2023-05-24T19:50:34.906Z,12.58
2023-05-24T19:55:03.626Z,12.41
2023-05-24T19:59:07.504Z,12.22
2023-05-24T20:03:12.997Z,12.17
2023-05-24T20:07:15.934Z,11.99
2023-05-24T20:11:18.831Z,11.81
2023-05-24T20:15:27.733Z,11.76
2023-05-24T20:19:30.640Z,11.74
2023-05-24T20:23:33.537Z,11.81
2023-05-24T20:27:36.479Z,11.92
2023-05-24T20:31:39.321Z,12.02
2023-05-24T20:35:42.916Z,11.91
2023-05-24T20:39:46.141Z,11.81
2023-05-24T20:43:51.479Z,11.72
2023-05-24T20:47:54.790Z,11.54
2023-05-24T20:51:57.596Z,11.33
2023-05-24T20:56:01.920Z,11.29
2023-05-24T21:00:05.909Z,11.33
2023-05-24T21:04:12.219Z,11.49
2023-05-24T21:08:15.113Z,11.67
2023-05-24T21:12:17.937Z,11.78
2023-05-24T21:16:20.856Z,11.65
2023-05-24T21:20:23.922Z,11.62
2023-05-24T21:24:26.921Z,11.71
2023-05-24T21:28:29.656Z,11.81
2023-05-24T21:32:32.697Z,11.83
2023-05-24T21:36:36.418Z,11.85
2023-05-24T21:40:39.280Z,11.76
2023-05-24T21:44:42.170Z,11.57
2023-05-24T21:48:44.972Z,11.54
2023-05-24T21:52:47.700Z,11.52
2023-05-24T21:57:15.925Z,11.48
2023-05-24T22:01:18.768Z,11.35
2023-05-24T22:05:21.588Z,10.90
2023-05-24T22:09:24.377Z,10.57
2023-05-24T22:13:27.174Z,10.39
2023-05-24T22:17:32.822Z,10.26
2023-05-24T22:21:36.947Z,10.19
2023-05-24T22:25:40.096Z,10.21
2023-05-24T22:29:43.941Z,10.21
2023-05-24T22:33:48.327Z,10.25
2023-05-24T22:38:42.004Z,10.33
2023-05-24T22:42:44.790Z,10.26
2023-05-24T22:46:49.878Z,10.14
2023-05-24T22:50:57.198Z,10.07
2023-05-24T22:55:27.273Z,10.08
2023-05-24T22:59:32.411Z,10.10
2023-05-24T23:03:37.554Z,10.06
2023-05-24T23:07:40.392Z,10.00
2023-05-24T23:11:44.500Z,9.92
2023-05-24T23:15:48.534Z,9.95
2023-05-24T23:19:51.426Z,10.03
2023-05-24T23:23:56.919Z,10.10
2023-05-24T23:28:00.905Z,9.94
2023-05-24T23:32:03.966Z,9.64
2023-05-24T23:36:07.051Z,9.49
2023-05-24T23:40:11.528Z,9.37
2023-05-24T23:44:14.357Z,9.42
2023-05-24T23:48:17.273Z,9.54
2023-05-24T23:52:20.069Z,9.56
2023-05-24T23:56:23.329Z,9.63
